Huvudsida
METAR-TAF:

METAR-TAF

Flygplatser :

Mehamns flygplats

Gamvik, Norge

latitud: 71-02N, longitud: 027-50E, höjd: 1 m

Aktuellt väderrapport

Denna rapport gjordes för 4 timmar och 3 minuter sedan, klockan 16:50 UTC
Vind 23 kt från väst i byarna ända upp till 33 kt
Temperatur -2°C
Fuktighet 93%
Tryck 1018 hPa
Sikt: 0200 m
tung snö

METAR: ENMH 211650Z 26023G33KT 0200 +SN VV006 M02/M03 Q1018

Tid: 21:53 (20:53 UTC)


TAF: saknas

Aktuella väderrapporter och prognoser från 4000 flygplatser (METAR- och TAF-rapporter).

De tillgängliga stationerna syns som gula och röda prickar på kartan.

För musen över prickarna för att se namnen på stationerna.

Klicka sedan för att få väderrapporter och prognoser.

För att ändra kartan: Klicka på de gröna knapparna med ett svart kors på för att zooma in; den gröna knappen med ett streck på för att zooma ut; eller på de gröna pilarna för angränsande kartor.


METAR-TAF: